sensor_id;sensor_type;location;lat;lon;timestamp;temperature;humidity
8537;DHT22;4306;50.210;10.628;2023-04-15T00:02:14;4.00;99.90
8537;DHT22;4306;50.210;10.628;2023-04-15T00:04:41;4.00;99.90
8537;DHT22;4306;50.210;10.628;2023-04-15T00:07:09;4.10;99.90
8537;DHT22;4306;50.210;10.628;2023-04-15T00:09:36;4.10;99.90
8537;DHT22;4306;50.210;10.628;2023-04-15T00:12:03;4.10;99.90
8537;DHT22;4306;50.210;10.628;2023-04-15T00:14:30;4.00;99.90
8537;DHT22;4306;50.210;10.628;2023-04-15T00:16:57;4.00;99.90
8537;DHT22;4306;50.210;10.628;2023-04-15T00:19:24;4.00;99.90
8537;DHT22;4306;50.210;10.628;2023-04-15T00:21:50;3.90;99.90
8537;DHT22;4306;50.210;10.628;2023-04-15T00:24:19;3.90;99.90
8537;DHT22;4306;50.210;10.628;2023-04-15T00:26:46;3.90;99.90
8537;DHT22;4306;50.210;10.628;2023-04-15T00:29:13;4.00;99.90
8537;DHT22;4306;50.210;10.628;2023-04-15T00:31:40;4.00;99.90
8537;DHT22;4306;50.210;10.628;2023-04-15T00:34:07;4.00;99.90
8537;DHT22;4306;50.210;10.628;2023-04-15T00:36:35;4.00;99.90
8537;DHT22;4306;50.210;10.628;2023-04-15T00:39:02;4.00;99.90
8537;DHT22;4306;50.210;10.628;2023-04-15T00:41:31;4.10;99.90
8537;DHT22;4306;50.210;10.628;2023-04-15T00:43:58;4.10;99.90
8537;DHT22;4306;50.210;10.628;2023-04-15T00:46:27;4.10;99.90
8537;DHT22;4306;50.210;10.628;2023-04-15T00:48:55;4.10;99.90
8537;DHT22;4306;50.210;10.628;2023-04-15T00:51:22;4.10;99.90
8537;DHT22;4306;50.210;10.628;2023-04-15T00:53:49;4.20;99.90
8537;DHT22;4306;50.210;10.628;2023-04-15T00:56:16;4.20;99.90
8537;DHT22;4306;50.210;10.628;2023-04-15T00:58:46;4.20;99.90
8537;DHT22;4306;50.210;10.628;2023-04-15T01:01:13;4.30;99.90
8537;DHT22;4306;50.210;10.628;2023-04-15T01:03:40;4.30;99.90
8537;DHT22;4306;50.210;10.628;2023-04-15T01:06:07;4.30;99.90
8537;DHT22;4306;50.210;10.628;2023-04-15T01:08:34;4.30;99.90
8537;DHT22;4306;50.210;10.628;2023-04-15T01:11:01;4.30;99.90
8537;DHT22;4306;50.210;10.628;2023-04-15T01:13:28;4.30;99.90
8537;DHT22;4306;50.210;10.628;2023-04-15T01:15:57;4.30;99.90
8537;DHT22;4306;50.210;10.628;2023-04-15T01:18:24;4.30;99.90
8537;DHT22;4306;50.210;10.628;2023-04-15T01:20:51;4.30;99.90
8537;DHT22;4306;50.210;10.628;2023-04-15T01:23:18;4.40;99.90
8537;DHT22;4306;50.210;10.628;2023-04-15T01:25:48;4.40;99.90
8537;DHT22;4306;50.210;10.628;2023-04-15T01:28:15;4.40;99.90
8537;DHT22;4306;50.210;10.628;2023-04-15T01:30:42;4.40;99.90
8537;DHT22;4306;50.210;10.628;2023-04-15T01:33:09;4.40;99.90
8537;DHT22;4306;50.210;10.628;2023-04-15T01:35:35;4.40;99.90
8537;DHT22;4306;50.210;10.628;2023-04-15T01:38:05;4.40;99.90
8537;DHT22;4306;50.210;10.628;2023-04-15T01:40:32;4.40;99.90
8537;DHT22;4306;50.210;10.628;2023-04-15T01:43:01;4.50;99.90
8537;DHT22;4306;50.210;10.628;2023-04-15T01:45:28;4.50;99.90
8537;DHT22;4306;50.210;10.628;2023-04-15T01:47:55;4.60;99.90
8537;DHT22;4306;50.210;10.628;2023-04-15T01:50:22;4.60;99.90
8537;DHT22;4306;50.210;10.628;2023-04-15T01:52:50;4.60;99.90
8537;DHT22;4306;50.210;10.628;2023-04-15T01:55:17;4.60;99.90
8537;DHT22;4306;50.210;10.628;2023-04-15T01:57:44;4.60;99.90
8537;DHT22;4306;50.210;10.628;2023-04-15T02:00:13;4.60;99.90
8537;DHT22;4306;50.210;10.628;2023-04-15T02:02:41;4.60;99.90
8537;DHT22;4306;50.210;10.628;2023-04-15T02:05:08;4.70;99.90
8537;DHT22;4306;50.210;10.628;2023-04-15T02:07:35;4.70;99.90
8537;DHT22;4306;50.210;10.628;2023-04-15T02:10:02;4.80;99.90
8537;DHT22;4306;50.210;10.628;2023-04-15T02:12:29;4.80;99.90
8537;DHT22;4306;50.210;10.628;2023-04-15T02:14:56;4.80;99.90
8537;DHT22;4306;50.210;10.628;2023-04-15T02:17:24;4.80;99.90
8537;DHT22;4306;50.210;10.628;2023-04-15T02:19:51;4.90;99.90
8537;DHT22;4306;50.210;10.628;2023-04-15T02:22:18;4.90;99.90
8537;DHT22;4306;50.210;10.628;2023-04-15T02:24:45;4.90;99.90
8537;DHT22;4306;50.210;10.628;2023-04-15T02:27:15;4.80;99.90
8537;DHT22;4306;50.210;10.628;2023-04-15T02:29:42;4.90;99.90
8537;DHT22;4306;50.210;10.628;2023-04-15T02:32:09;4.90;99.90
8537;DHT22;4306;50.210;10.628;2023-04-15T02:34:38;4.90;99.90
8537;DHT22;4306;50.210;10.628;2023-04-15T02:37:05;4.90;99.90
8537;DHT22;4306;50.210;10.628;2023-04-15T02:39:32;4.90;99.90
8537;DHT22;4306;50.210;10.628;2023-04-15T02:42:00;4.90;99.90
8537;DHT22;4306;50.210;10.628;2023-04-15T02:44:27;5.00;99.90
8537;DHT22;4306;50.210;10.628;2023-04-15T02:46:54;5.00;99.90
8537;DHT22;4306;50.210;10.628;2023-04-15T02:49:21;5.00;99.90
8537;DHT22;4306;50.210;10.628;2023-04-15T02:51:49;5.00;99.90
8537;DHT22;4306;50.210;10.628;2023-04-15T02:54:16;5.00;99.90
8537;DHT22;4306;50.210;10.628;2023-04-15T02:56:43;5.10;99.90
8537;DHT22;4306;50.210;10.628;2023-04-15T02:59:10;5.10;99.90
8537;DHT22;4306;50.210;10.628;2023-04-15T03:01:37;5.10;99.90
8537;DHT22;4306;50.210;10.628;2023-04-15T03:04:04;5.10;99.90
8537;DHT22;4306;50.210;10.628;2023-04-15T03:06:32;5.10;99.90
8537;DHT22;4306;50.210;10.628;2023-04-15T03:09:00;5.10;99.90
8537;DHT22;4306;50.210;10.628;2023-04-15T03:11:28;5.20;99.90
8537;DHT22;4306;50.210;10.628;2023-04-15T03:13:56;5.20;99.90
8537;DHT22;4306;50.210;10.628;2023-04-15T03:16:22;5.20;99.90
8537;DHT22;4306;50.210;10.628;2023-04-15T03:18:49;5.10;99.90
8537;DHT22;4306;50.210;10.628;2023-04-15T03:21:16;5.20;99.90
8537;DHT22;4306;50.210;10.628;2023-04-15T03:23:44;5.10;99.90
8537;DHT22;4306;50.210;10.628;2023-04-15T03:26:25;5.20;99.90
8537;DHT22;4306;50.210;10.628;2023-04-15T03:28:52;5.20;99.90
8537;DHT22;4306;50.210;10.628;2023-04-15T03:31:18;5.20;99.90
8537;DHT22;4306;50.210;10.628;2023-04-15T03:33:45;5.20;99.90
8537;DHT22;4306;50.210;10.628;2023-04-15T03:36:12;5.20;99.90
8537;DHT22;4306;50.210;10.628;2023-04-15T03:38:39;5.20;99.90
8537;DHT22;4306;50.210;10.628;2023-04-15T03:41:06;5.20;99.90
8537;DHT22;4306;50.210;10.628;2023-04-15T03:43:34;5.20;99.90
8537;DHT22;4306;50.210;10.628;2023-04-15T03:46:01;5.30;99.90
8537;DHT22;4306;50.210;10.628;2023-04-15T03:48:28;5.30;99.90
8537;DHT22;4306;50.210;10.628;2023-04-15T03:50:55;5.30;99.90
8537;DHT22;4306;50.210;10.628;2023-04-15T03:53:22;5.30;99.90
8537;DHT22;4306;50.210;10.628;2023-04-15T03:55:48;5.30;99.90
8537;DHT22;4306;50.210;10.628;2023-04-15T03:58:16;5.20;99.90
8537;DHT22;4306;50.210;10.628;2023-04-15T04:00:44;5.20;99.90
8537;DHT22;4306;50.210;10.628;2023-04-15T04:03:11;5.20;99.90
8537;DHT22;4306;50.210;10.628;2023-04-15T04:05:38;5.20;99.90
8537;DHT22;4306;50.210;10.628;2023-04-15T04:08:06;5.20;99.90
8537;DHT22;4306;50.210;10.628;2023-04-15T04:10:33;5.20;99.90
8537;DHT22;4306;50.210;10.628;2023-04-15T04:12:59;5.10;99.90
8537;DHT22;4306;50.210;10.628;2023-04-15T04:15:26;5.10;99.90
8537;DHT22;4306;50.210;10.628;2023-04-15T04:17:55;5.00;99.90
8537;DHT22;4306;50.210;10.628;2023-04-15T04:20:22;4.90;99.90
8537;DHT22;4306;50.210;10.628;2023-04-15T04:22:49;4.90;99.90
8537;DHT22;4306;50.210;10.628;2023-04-15T04:25:16;4.90;99.90
8537;DHT22;4306;50.210;10.628;2023-04-15T04:27:43;4.90;99.90
8537;DHT22;4306;50.210;10.628;2023-04-15T04:30:11;5.00;99.90
8537;DHT22;4306;50.210;10.628;2023-04-15T04:32:38;5.10;99.90
8537;DHT22;4306;50.210;10.628;2023-04-15T04:35:07;5.10;99.90
8537;DHT22;4306;50.210;10.628;2023-04-15T04:37:34;5.10;99.90
8537;DHT22;4306;50.210;10.628;2023-04-15T04:40:01;5.10;99.90
8537;DHT22;4306;50.210;10.628;2023-04-15T04:42:28;5.20;99.90
8537;DHT22;4306;50.210;10.628;2023-04-15T04:44:56;5.20;99.90
8537;DHT22;4306;50.210;10.628;2023-04-15T04:47:22;5.20;99.90
8537;DHT22;4306;50.210;10.628;2023-04-15T04:49:49;5.20;99.90
8537;DHT22;4306;50.210;10.628;2023-04-15T04:52:17;5.30;99.90
8537;DHT22;4306;50.210;10.628;2023-04-15T04:54:44;5.20;99.90
8537;DHT22;4306;50.210;10.628;2023-04-15T04:57:11;5.20;99.90
8537;DHT22;4306;50.210;10.628;2023-04-15T04:59:39;5.30;99.90
8537;DHT22;4306;50.210;10.628;2023-04-15T05:02:06;5.30;99.90
8537;DHT22;4306;50.210;10.628;2023-04-15T05:04:33;5.30;99.90
8537;DHT22;4306;50.210;10.628;2023-04-15T05:07:00;5.30;99.90
8537;DHT22;4306;50.210;10.628;2023-04-15T05:09:28;5.40;99.90
8537;DHT22;4306;50.210;10.628;2023-04-15T05:11:57;5.40;99.90
8537;DHT22;4306;50.210;10.628;2023-04-15T05:14:23;5.40;99.90
8537;DHT22;4306;50.210;10.628;2023-04-15T05:16:50;5.50;99.90
8537;DHT22;4306;50.210;10.628;2023-04-15T05:19:17;5.50;99.90
8537;DHT22;4306;50.210;10.628;2023-04-15T05:21:44;5.60;99.90
8537;DHT22;4306;50.210;10.628;2023-04-15T05:24:11;5.60;99.90
8537;DHT22;4306;50.210;10.628;2023-04-15T05:26:39;5.60;99.90
8537;DHT22;4306;50.210;10.628;2023-04-15T05:29:06;5.60;99.90
8537;DHT22;4306;50.210;10.628;2023-04-15T05:31:33;5.70;99.90
8537;DHT22;4306;50.210;10.628;2023-04-15T05:34:00;5.70;99.90
8537;DHT22;4306;50.210;10.628;2023-04-15T05:36:26;5.80;99.90
8537;DHT22;4306;50.210;10.628;2023-04-15T05:38:54;5.80;99.90
8537;DHT22;4306;50.210;10.628;2023-04-15T05:41:20;5.80;99.90
8537;DHT22;4306;50.210;10.628;2023-04-15T05:43:49;5.80;99.90
8537;DHT22;4306;50.210;10.628;2023-04-15T05:46:15;5.90;99.90
8537;DHT22;4306;50.210;10.628;2023-04-15T05:48:42;5.90;99.90
8537;DHT22;4306;50.210;10.628;2023-04-15T05:51:09;5.90;99.90
8537;DHT22;4306;50.210;10.628;2023-04-15T05:53:36;5.90;99.90
8537;DHT22;4306;50.210;10.628;2023-04-15T05:56:03;6.00;99.90
8537;DHT22;4306;50.210;10.628;2023-04-15T05:58:30;5.90;99.90
8537;DHT22;4306;50.210;10.628;2023-04-15T06:00:58;5.90;99.90
8537;DHT22;4306;50.210;10.628;2023-04-15T06:03:25;5.90;99.90
8537;DHT22;4306;50.210;10.628;2023-04-15T06:05:53;5.90;99.90
8537;DHT22;4306;50.210;10.628;2023-04-15T06:08:20;5.90;99.90
8537;DHT22;4306;50.210;10.628;2023-04-15T06:10:47;5.90;99.90
8537;DHT22;4306;50.210;10.628;2023-04-15T06:13:13;5.90;99.90
8537;DHT22;4306;50.210;10.628;2023-04-15T06:15:41;5.90;99.90
8537;DHT22;4306;50.210;10.628;2023-04-15T06:18:09;5.90;99.90
8537;DHT22;4306;50.210;10.628;2023-04-15T06:20:37;6.00;99.90
8537;DHT22;4306;50.210;10.628;2023-04-15T06:23:04;6.00;99.90
8537;DHT22;4306;50.210;10.628;2023-04-15T06:25:31;6.00;99.90
8537;DHT22;4306;50.210;10.628;2023-04-15T06:27:58;6.10;99.90
8537;DHT22;4306;50.210;10.628;2023-04-15T06:30:25;6.10;99.90
8537;DHT22;4306;50.210;10.628;2023-04-15T06:32:52;6.20;99.90
8537;DHT22;4306;50.210;10.628;2023-04-15T06:35:22;6.20;99.90
8537;DHT22;4306;50.210;10.628;2023-04-15T06:37:49;6.20;99.90
8537;DHT22;4306;50.210;10.628;2023-04-15T06:40:16;6.20;99.90
8537;DHT22;4306;50.210;10.628;2023-04-15T06:42:43;6.20;99.90
8537;DHT22;4306;50.210;10.628;2023-04-15T06:45:10;6.20;99.90
8537;DHT22;4306;50.210;10.628;2023-04-15T06:47:37;6.20;99.90
8537;DHT22;4306;50.210;10.628;2023-04-15T06:50:04;6.30;99.90
8537;DHT22;4306;50.210;10.628;2023-04-15T06:52:34;6.20;99.90
8537;DHT22;4306;50.210;10.628;2023-04-15T06:55:01;6.30;99.90
8537;DHT22;4306;50.210;10.628;2023-04-15T06:57:28;6.20;99.90
8537;DHT22;4306;50.210;10.628;2023-04-15T06:59:55;6.30;99.90
8537;DHT22;4306;50.210;10.628;2023-04-15T07:02:22;6.30;99.90
8537;DHT22;4306;50.210;10.628;2023-04-15T07:04:49;6.30;99.90
8537;DHT22;4306;50.210;10.628;2023-04-15T07:07:15;6.30;99.90
8537;DHT22;4306;50.210;10.628;2023-04-15T07:09:44;6.30;99.90
8537;DHT22;4306;50.210;10.628;2023-04-15T07:12:11;6.30;99.90
8537;DHT22;4306;50.210;10.628;2023-04-15T07:14:39;6.30;99.90
8537;DHT22;4306;50.210;10.628;2023-04-15T07:17:06;6.30;99.90
8537;DHT22;4306;50.210;10.628;2023-04-15T07:19:33;6.30;99.90
8537;DHT22;4306;50.210;10.628;2023-04-15T07:22:00;6.40;99.90
8537;DHT22;4306;50.210;10.628;2023-04-15T07:24:27;6.50;99.90
8537;DHT22;4306;50.210;10.628;2023-04-15T07:26:55;6.50;99.90
8537;DHT22;4306;50.210;10.628;2023-04-15T07:29:24;6.50;99.90
8537;DHT22;4306;50.210;10.628;2023-04-15T07:31:51;6.50;99.90
8537;DHT22;4306;50.210;10.628;2023-04-15T07:34:18;6.50;99.90
8537;DHT22;4306;50.210;10.628;2023-04-15T07:36:46;6.60;99.90
8537;DHT22;4306;50.210;10.628;2023-04-15T07:39:15;6.50;99.90
8537;DHT22;4306;50.210;10.628;2023-04-15T07:41:41;6.50;99.90
8537;DHT22;4306;50.210;10.628;2023-04-15T07:44:10;6.50;99.90
8537;DHT22;4306;50.210;10.628;2023-04-15T07:46:37;6.60;99.90
8537;DHT22;4306;50.210;10.628;2023-04-15T07:49:03;6.60;99.90
8537;DHT22;4306;50.210;10.628;2023-04-15T07:51:30;6.50;99.90
8537;DHT22;4306;50.210;10.628;2023-04-15T07:53:57;6.50;99.90
8537;DHT22;4306;50.210;10.628;2023-04-15T07:56:24;6.50;99.90
8537;DHT22;4306;50.210;10.628;2023-04-15T07:58:52;6.60;99.90
8537;DHT22;4306;50.210;10.628;2023-04-15T08:01:20;6.60;99.90
8537;DHT22;4306;50.210;10.628;2023-04-15T08:03:47;6.60;99.90
8537;DHT22;4306;50.210;10.628;2023-04-15T08:06:14;6.70;99.90
8537;DHT22;4306;50.210;10.628;2023-04-15T08:08:41;6.70;99.90
8537;DHT22;4306;50.210;10.628;2023-04-15T08:11:08;6.80;99.90
8537;DHT22;4306;50.210;10.628;2023-04-15T08:13:35;6.80;99.90
8537;DHT22;4306;50.210;10.628;2023-04-15T08:16:17;6.90;99.90
8537;DHT22;4306;50.210;10.628;2023-04-15T08:18:45;6.80;99.90
8537;DHT22;4306;50.210;10.628;2023-04-15T08:21:13;6.70;99.90
8537;DHT22;4306;50.210;10.628;2023-04-15T08:23:39;6.80;99.90
8537;DHT22;4306;50.210;10.628;2023-04-15T08:26:07;6.70;99.90
8537;DHT22;4306;50.210;10.628;2023-04-15T08:28:34;6.70;99.90
8537;DHT22;4306;50.210;10.628;2023-04-15T08:31:01;6.80;99.90
8537;DHT22;4306;50.210;10.628;2023-04-15T08:33:28;6.80;99.90
8537;DHT22;4306;50.210;10.628;2023-04-15T08:35:56;6.90;99.90
8537;DHT22;4306;50.210;10.628;2023-04-15T08:38:23;6.90;99.90
8537;DHT22;4306;50.210;10.628;2023-04-15T08:40:50;7.00;99.90
8537;DHT22;4306;50.210;10.628;2023-04-15T08:43:20;7.00;99.90
8537;DHT22;4306;50.210;10.628;2023-04-15T08:45:49;7.10;99.90
8537;DHT22;4306;50.210;10.628;2023-04-15T08:48:17;7.10;99.90
8537;DHT22;4306;50.210;10.628;2023-04-15T08:50:44;7.00;99.90
8537;DHT22;4306;50.210;10.628;2023-04-15T08:53:13;6.90;99.90
8537;DHT22;4306;50.210;10.628;2023-04-15T08:55:43;6.90;99.90
8537;DHT22;4306;50.210;10.628;2023-04-15T08:58:11;6.90;99.90
8537;DHT22;4306;50.210;10.628;2023-04-15T09:00:38;7.00;99.90
8537;DHT22;4306;50.210;10.628;2023-04-15T09:03:05;7.20;99.90
8537;DHT22;4306;50.210;10.628;2023-04-15T09:05:35;7.00;99.90
8537;DHT22;4306;50.210;10.628;2023-04-15T09:08:03;7.00;99.90
8537;DHT22;4306;50.210;10.628;2023-04-15T09:10:32;7.00;99.90
8537;DHT22;4306;50.210;10.628;2023-04-15T09:12:59;7.00;99.90
8537;DHT22;4306;50.210;10.628;2023-04-15T09:15:26;7.00;99.90
8537;DHT22;4306;50.210;10.628;2023-04-15T09:17:54;6.90;99.90
8537;DHT22;4306;50.210;10.628;2023-04-15T09:20:21;6.90;99.90
8537;DHT22;4306;50.210;10.628;2023-04-15T09:22:49;7.00;99.90
8537;DHT22;4306;50.210;10.628;2023-04-15T09:25:29;7.00;99.90
8537;DHT22;4306;50.210;10.628;2023-04-15T09:27:58;7.00;99.90
8537;DHT22;4306;50.210;10.628;2023-04-15T09:30:26;7.00;99.90
8537;DHT22;4306;50.210;10.628;2023-04-15T09:32:54;7.00;99.90
8537;DHT22;4306;50.210;10.628;2023-04-15T09:35:23;6.90;99.90
8537;DHT22;4306;50.210;10.628;2023-04-15T09:37:50;7.00;99.90
8537;DHT22;4306;50.210;10.628;2023-04-15T09:40:30;7.00;99.90
8537;DHT22;4306;50.210;10.628;2023-04-15T09:42:59;7.00;99.90
8537;DHT22;4306;50.210;10.628;2023-04-15T09:45:26;6.90;99.90
8537;DHT22;4306;50.210;10.628;2023-04-15T09:47:53;7.00;99.90
8537;DHT22;4306;50.210;10.628;2023-04-15T09:50:20;7.00;99.90
8537;DHT22;4306;50.210;10.628;2023-04-15T09:52:47;7.10;99.90
8537;DHT22;4306;50.210;10.628;2023-04-15T09:55:16;7.20;99.90
8537;DHT22;4306;50.210;10.628;2023-04-15T09:57:45;7.20;99.90
8537;DHT22;4306;50.210;10.628;2023-04-15T10:00:14;7.20;99.90
8537;DHT22;4306;50.210;10.628;2023-04-15T10:02:41;7.30;99.90
8537;DHT22;4306;50.210;10.628;2023-04-15T10:05:10;7.30;99.90
8537;DHT22;4306;50.210;10.628;2023-04-15T10:07:37;7.20;99.90
8537;DHT22;4306;50.210;10.628;2023-04-15T10:10:07;7.20;99.90
8537;DHT22;4306;50.210;10.628;2023-04-15T10:12:36;7.20;99.90
8537;DHT22;4306;50.210;10.628;2023-04-15T10:15:04;7.30;99.90
8537;DHT22;4306;50.210;10.628;2023-04-15T10:17:34;7.30;99.90
8537;DHT22;4306;50.210;10.628;2023-04-15T10:20:02;7.30;99.90
8537;DHT22;4306;50.210;10.628;2023-04-15T10:22:31;7.30;99.90
8537;DHT22;4306;50.210;10.628;2023-04-15T10:24:58;7.40;99.90
8537;DHT22;4306;50.210;10.628;2023-04-15T10:27:26;7.40;99.90
8537;DHT22;4306;50.210;10.628;2023-04-15T10:29:53;7.40;99.90
8537;DHT22;4306;50.210;10.628;2023-04-15T10:32:21;7.50;99.90
8537;DHT22;4306;50.210;10.628;2023-04-15T10:34:51;7.40;99.90
8537;DHT22;4306;50.210;10.628;2023-04-15T10:37:21;7.50;99.90
8537;DHT22;4306;50.210;10.628;2023-04-15T10:39:48;7.60;99.90
8537;DHT22;4306;50.210;10.628;2023-04-15T10:42:16;7.70;99.90
8537;DHT22;4306;50.210;10.628;2023-04-15T10:44:48;7.70;99.90
8537;DHT22;4306;50.210;10.628;2023-04-15T10:47:17;7.80;99.90
8537;DHT22;4306;50.210;10.628;2023-04-15T10:49:46;7.90;99.90
8537;DHT22;4306;50.210;10.628;2023-04-15T10:52:16;7.90;99.90
8537;DHT22;4306;50.210;10.628;2023-04-15T10:54:43;7.90;99.90
8537;DHT22;4306;50.210;10.628;2023-04-15T10:57:15;7.70;99.90
8537;DHT22;4306;50.210;10.628;2023-04-15T11:00:10;7.70;99.90
8537;DHT22;4306;50.210;10.628;2023-04-15T11:02:39;7.50;99.90
8537;DHT22;4306;50.210;10.628;2023-04-15T11:05:06;7.60;99.90
8537;DHT22;4306;50.210;10.628;2023-04-15T11:07:37;7.60;99.90
8537;DHT22;4306;50.210;10.628;2023-04-15T11:13:17;7.50;99.90
8537;DHT22;4306;50.210;10.628;2023-04-15T11:15:47;7.50;99.90
8537;DHT22;4306;50.210;10.628;2023-04-15T11:18:17;7.60;99.90
8537;DHT22;4306;50.210;10.628;2023-04-15T11:20:48;7.50;99.90
8537;DHT22;4306;50.210;10.628;2023-04-15T11:23:18;7.60;99.90
8537;DHT22;4306;50.210;10.628;2023-04-15T11:25:45;7.60;99.90
8537;DHT22;4306;50.210;10.628;2023-04-15T11:28:13;7.70;99.90
8537;DHT22;4306;50.210;10.628;2023-04-15T11:30:41;7.80;99.90
8537;DHT22;4306;50.210;10.628;2023-04-15T11:33:09;7.70;99.90
8537;DHT22;4306;50.210;10.628;2023-04-15T11:35:37;7.70;99.90
8537;DHT22;4306;50.210;10.628;2023-04-15T11:38:08;7.70;99.90
8537;DHT22;4306;50.210;10.628;2023-04-15T11:40:37;7.80;99.90
8537;DHT22;4306;50.210;10.628;2023-04-15T11:43:06;7.80;99.90
8537;DHT22;4306;50.210;10.628;2023-04-15T11:45:33;7.70;99.90
8537;DHT22;4306;50.210;10.628;2023-04-15T11:48:10;7.80;99.90
8537;DHT22;4306;50.210;10.628;2023-04-15T11:50:37;7.80;99.90
8537;DHT22;4306;50.210;10.628;2023-04-15T11:53:06;7.80;99.90
8537;DHT22;4306;50.210;10.628;2023-04-15T11:55:42;7.80;99.90
8537;DHT22;4306;50.210;10.628;2023-04-15T11:58:11;7.70;99.90
8537;DHT22;4306;50.210;10.628;2023-04-15T12:00:40;7.90;99.90
8537;DHT22;4306;50.210;10.628;2023-04-15T12:03:18;7.90;99.90
8537;DHT22;4306;50.210;10.628;2023-04-15T12:06:05;8.00;99.90
8537;DHT22;4306;50.210;10.628;2023-04-15T12:11:39;8.10;99.90
8537;DHT22;4306;50.210;10.628;2023-04-15T12:14:12;8.10;99.90
8537;DHT22;4306;50.210;10.628;2023-04-15T12:16:42;8.20;99.90
8537;DHT22;4306;50.210;10.628;2023-04-15T12:19:11;8.00;99.90
8537;DHT22;4306;50.210;10.628;2023-04-15T12:21:39;8.20;99.90
8537;DHT22;4306;50.210;10.628;2023-04-15T12:24:09;8.20;99.90
8537;DHT22;4306;50.210;10.628;2023-04-15T12:26:43;8.30;99.90
8537;DHT22;4306;50.210;10.628;2023-04-15T12:29:11;8.30;99.90
8537;DHT22;4306;50.210;10.628;2023-04-15T12:31:46;8.40;99.90
8537;DHT22;4306;50.210;10.628;2023-04-15T12:34:14;8.40;99.90
8537;DHT22;4306;50.210;10.628;2023-04-15T12:36:41;8.40;99.90
8537;DHT22;4306;50.210;10.628;2023-04-15T12:39:08;8.40;99.90
8537;DHT22;4306;50.210;10.628;2023-04-15T12:41:36;8.40;99.90
8537;DHT22;4306;50.210;10.628;2023-04-15T12:44:04;8.40;99.90
8537;DHT22;4306;50.210;10.628;2023-04-15T12:46:31;8.30;99.90
8537;DHT22;4306;50.210;10.628;2023-04-15T12:48:57;8.40;99.90
8537;DHT22;4306;50.210;10.628;2023-04-15T12:51:24;8.50;99.90
8537;DHT22;4306;50.210;10.628;2023-04-15T12:53:51;8.50;99.90
8537;DHT22;4306;50.210;10.628;2023-04-15T12:56:18;8.30;99.90
8537;DHT22;4306;50.210;10.628;2023-04-15T12:58:45;8.20;99.90
8537;DHT22;4306;50.210;10.628;2023-04-15T13:01:13;8.30;99.90
8537;DHT22;4306;50.210;10.628;2023-04-15T13:03:40;8.30;99.90
8537;DHT22;4306;50.210;10.628;2023-04-15T13:06:07;8.30;99.90
8537;DHT22;4306;50.210;10.628;2023-04-15T13:08:34;8.30;99.90
8537;DHT22;4306;50.210;10.628;2023-04-15T13:11:01;8.40;99.90
8537;DHT22;4306;50.210;10.628;2023-04-15T13:13:27;8.40;99.90
8537;DHT22;4306;50.210;10.628;2023-04-15T13:15:56;8.30;99.90
8537;DHT22;4306;50.210;10.628;2023-04-15T13:18:24;8.40;99.90
8537;DHT22;4306;50.210;10.628;2023-04-15T13:20:51;8.40;99.90
8537;DHT22;4306;50.210;10.628;2023-04-15T13:23:19;8.40;99.90
8537;DHT22;4306;50.210;10.628;2023-04-15T13:25:46;8.30;99.90
8537;DHT22;4306;50.210;10.628;2023-04-15T13:28:13;8.40;99.90
8537;DHT22;4306;50.210;10.628;2023-04-15T13:30:40;8.30;99.90
8537;DHT22;4306;50.210;10.628;2023-04-15T13:33:08;8.40;99.90
8537;DHT22;4306;50.210;10.628;2023-04-15T13:35:37;8.30;99.90
8537;DHT22;4306;50.210;10.628;2023-04-15T13:38:03;8.30;99.90
8537;DHT22;4306;50.210;10.628;2023-04-15T13:40:31;8.40;99.90
8537;DHT22;4306;50.210;10.628;2023-04-15T13:42:57;8.30;99.90
8537;DHT22;4306;50.210;10.628;2023-04-15T13:45:25;8.30;99.90
8537;DHT22;4306;50.210;10.628;2023-04-15T13:47:52;8.50;99.90
8537;DHT22;4306;50.210;10.628;2023-04-15T13:50:19;8.30;99.90
8537;DHT22;4306;50.210;10.628;2023-04-15T13:52:47;8.40;99.90
8537;DHT22;4306;50.210;10.628;2023-04-15T13:55:14;8.40;99.90
8537;DHT22;4306;50.210;10.628;2023-04-15T13:57:41;8.30;99.90
8537;DHT22;4306;50.210;10.628;2023-04-15T14:00:08;8.20;99.90
8537;DHT22;4306;50.210;10.628;2023-04-15T14:02:35;8.40;99.90
8537;DHT22;4306;50.210;10.628;2023-04-15T14:05:02;8.30;99.90
8537;DHT22;4306;50.210;10.628;2023-04-15T14:07:30;8.20;99.90
8537;DHT22;4306;50.210;10.628;2023-04-15T14:09:59;8.30;99.90
8537;DHT22;4306;50.210;10.628;2023-04-15T14:12:26;8.30;99.90
8537;DHT22;4306;50.210;10.628;2023-04-15T14:14:52;8.30;99.90
8537;DHT22;4306;50.210;10.628;2023-04-15T14:17:19;8.40;99.90
8537;DHT22;4306;50.210;10.628;2023-04-15T14:19:46;8.30;99.90
8537;DHT22;4306;50.210;10.628;2023-04-15T14:22:13;8.20;99.90
8537;DHT22;4306;50.210;10.628;2023-04-15T14:24:40;8.10;99.90
8537;DHT22;4306;50.210;10.628;2023-04-15T14:27:08;8.00;99.90
8537;DHT22;4306;50.210;10.628;2023-04-15T14:29:36;8.10;99.90
8537;DHT22;4306;50.210;10.628;2023-04-15T14:32:04;8.20;99.90
8537;DHT22;4306;50.210;10.628;2023-04-15T14:34:31;8.20;99.90
8537;DHT22;4306;50.210;10.628;2023-04-15T14:36:58;8.30;99.90
8537;DHT22;4306;50.210;10.628;2023-04-15T14:39:25;8.40;99.90
8537;DHT22;4306;50.210;10.628;2023-04-15T14:41:52;8.50;99.90
8537;DHT22;4306;50.210;10.628;2023-04-15T14:44:21;8.40;99.90
8537;DHT22;4306;50.210;10.628;2023-04-15T14:46:48;8.30;99.90
8537;DHT22;4306;50.210;10.628;2023-04-15T14:49:16;8.40;99.90
8537;DHT22;4306;50.210;10.628;2023-04-15T14:51:43;8.40;99.90
8537;DHT22;4306;50.210;10.628;2023-04-15T14:54:10;8.40;99.90
8537;DHT22;4306;50.210;10.628;2023-04-15T14:56:37;8.40;99.90
8537;DHT22;4306;50.210;10.628;2023-04-15T14:59:04;8.50;99.90
8537;DHT22;4306;50.210;10.628;2023-04-15T15:01:33;8.30;99.90
8537;DHT22;4306;50.210;10.628;2023-04-15T15:04:00;8.20;99.90
8537;DHT22;4306;50.210;10.628;2023-04-15T15:06:27;8.10;99.90
8537;DHT22;4306;50.210;10.628;2023-04-15T15:08:53;8.10;99.90
8537;DHT22;4306;50.210;10.628;2023-04-15T15:11:20;8.10;99.90
8537;DHT22;4306;50.210;10.628;2023-04-15T15:13:47;8.10;99.90
8537;DHT22;4306;50.210;10.628;2023-04-15T15:16:14;8.10;99.90
8537;DHT22;4306;50.210;10.628;2023-04-15T15:18:42;8.10;99.90
8537;DHT22;4306;50.210;10.628;2023-04-15T15:21:09;8.20;99.90
8537;DHT22;4306;50.210;10.628;2023-04-15T15:23:36;8.20;99.90
8537;DHT22;4306;50.210;10.628;2023-04-15T15:26:03;8.10;99.90
8537;DHT22;4306;50.210;10.628;2023-04-15T15:28:30;8.20;99.90
8537;DHT22;4306;50.210;10.628;2023-04-15T15:30:58;8.20;99.90
8537;DHT22;4306;50.210;10.628;2023-04-15T15:33:25;8.20;99.90
8537;DHT22;4306;50.210;10.628;2023-04-15T15:35:53;8.20;99.90
8537;DHT22;4306;50.210;10.628;2023-04-15T15:38:21;8.20;99.90
8537;DHT22;4306;50.210;10.628;2023-04-15T15:40:48;8.20;99.90
8537;DHT22;4306;50.210;10.628;2023-04-15T15:43:15;8.20;99.90
8537;DHT22;4306;50.210;10.628;2023-04-15T15:45:42;8.10;99.90
8537;DHT22;4306;50.210;10.628;2023-04-15T15:48:09;8.20;99.90
8537;DHT22;4306;50.210;10.628;2023-04-15T15:50:36;8.10;99.90
8537;DHT22;4306;50.210;10.628;2023-04-15T15:53:04;8.10;99.90
8537;DHT22;4306;50.210;10.628;2023-04-15T15:55:31;8.10;99.90
8537;DHT22;4306;50.210;10.628;2023-04-15T15:57:58;8.00;99.90
8537;DHT22;4306;50.210;10.628;2023-04-15T16:00:25;8.10;99.90
8537;DHT22;4306;50.210;10.628;2023-04-15T16:02:54;8.20;99.90
8537;DHT22;4306;50.210;10.628;2023-04-15T16:05:21;8.00;99.90
8537;DHT22;4306;50.210;10.628;2023-04-15T16:07:48;8.00;99.90
8537;DHT22;4306;50.210;10.628;2023-04-15T16:10:16;8.00;99.90
8537;DHT22;4306;50.210;10.628;2023-04-15T16:12:43;8.00;99.90